Weather observations for the past three days for
Claremore, Claremore Regional Airport
Imperial (Metric)
Date Time (cdt) Wind (mph) Vis. (mi.) Weather Sky Cond. Temperature (ºF) Relative Humidity Wind Chill (°F) Heat Index (°F) Pressure Precipitation (in)
Air Dwpt 6 hour altimeter (in) sea level (mb) 1 hr 3 hr 6 hr
Max. Min.
03 00:55 Calm 10.00 Fair CLR 46.4 46.4 100% 30.11 0.0
03 00:35 Calm 10.00 Fair CLR 46.4 44.6 93% 30.11 0.0
03 00:15 Calm 10.00 Fair CLR 46.4 46.4 100% 30.11 0.0
02 23:55 Calm 10.00 Fair CLR 48.2 46.4 94% 30.11 0.0
02 23:35 Calm 10.00 Fair CLR 46.4 46.4 100% 30.11 0.0
02 23:15 Calm 10.00 Fair CLR 48.2 48.2 100% 30.11 0.0
02 22:55 NE 5 10.00 Fair CLR 48.2 48.2 100% 47 30.11 0.0
02 22:35 NE 3 10.00 Fair CLR 48.2 48.2 100% 30.11 0.0
02 22:15 NE 3 10.00 Fair CLR 48.2 48.2 100% 30.11 0.0
02 21:55 Calm 10.00 A Few Clouds FEW002 48.2 48.2 100% 30.11 0.0
02 21:35 Calm 10.00 A Few Clouds FEW002 50 48.2 94% 30.11 0.0
02 21:15 Calm 10.00 Fair CLR 50 48.2 94% 30.1 0.0
02 20:55 Calm 10.00 Fair CLR 53.6 46.4 77% 30.09 0.0
02 20:35 NE 3 10.00 Fair CLR 55.4 46.4 72% 30.09 0.0
02 20:15 NE 5 10.00 Fair CLR 60.8 42.8 52% 30.09 0.0
02 19:55 NE 5 10.00 Fair CLR 62.6 41 45% 30.09 0.0
02 19:35 NE 3 10.00 Fair CLR 64.4 41 43% 30.09 0.0
02 19:15 N 3 10.00 Fair CLR 66.2 39.2 37% 30.09 0.0
02 18:55 N 5 10.00 Fair CLR 66.2 37.4 35% 30.09 0.0
02 18:35 Vrbl 7 10.00 Fair CLR 68 39.2 35% 30.1 0.0
02 18:15 N 7 10.00 Fair CLR 68 37.4 33% 30.1 0.0
02 17:55 Vrbl 5 G 13 10.00 Fair CLR 68 37.4 33% 30.1 0.0
02 17:35 Vrbl 6 G 13 10.00 Fair CLR 68 39.2 35% 30.1 0.0
02 17:15 NW 7 G 13 5.00 Light Rain Haze CLR 68 39.2 35% 30.1 0.0
02 16:55 Vrbl 5 G 15 10.00 Fair CLR 68 39.2 35% 30.1 0.0
02 16:35 W 3 10.00 Fair CLR 68 39.2 35% 30.11 0.0
02 16:15 N 8 10.00 Fair CLR 68 39.2 35% 30.11 0.0
02 15:55 N 9 G 15 9.00 Fair CLR 68 39.2 35% 30.12 0.0
02 15:35 Vrbl 9 G 15 10.00 Fair CLR 68 39.2 35% 30.13 0.0
02 15:15 NW 9 G 16 9.00 Fair CLR 68 39.2 35% 30.14 0.0
02 14:55 NW 12 10.00 Fair CLR 68 39.2 35% 30.14 0.0
02 14:35 N 10 10.00 Fair CLR 68 41 38% 30.14 0.0
02 14:15 Vrbl 7 G 15 10.00 Fair CLR 68 41 38% 30.14 0.0
02 13:55 N 8 6.00 Fair with Haze CLR 66.2 41 40% 30.15 0.0
02 13:35 Vrbl 5 G 13 10.00 Fair CLR 68 42.8 40% 30.15 0.0
02 13:15 NW 7 G 14 10.00 Fair CLR 66.2 41 40% 30.16 0.0
02 12:55 Vrbl 7 10.00 Fair CLR 66.2 41 40% 30.17 0.0
02 12:35 Vrbl 7 10.00 Fair CLR 66.2 41 40% 30.17 0.0
02 12:15 N 7 9.00 Fair CLR 64.4 41 43% 30.18 0.0
02 11:55 NE 8 10.00 Fair CLR 64.4 41 43% 30.18 0.0
02 11:35 NW 3 10.00 Fair CLR 64.4 41 43% 30.18 0.0
02 11:15 NE 8 G 14 10.00 Fair CLR 64.4 41 43% 30.18 0.0
02 10:55 NE 8 10.00 Fair CLR 64.4 41 43% 30.18 0.0
02 10:35 NE 8 10.00 Fair CLR 62.6 41 45% 30.18 0.0
02 10:15 NE 7 10.00 Fair CLR 60.8 41 48% 30.17 0.0
02 09:55 NE 8 10.00 Fair CLR 60.8 42.8 52% 30.18 0.0
02 09:35 N 9 G 16 10.00 Fair CLR 59 42.8 55% 30.17 0.0
02 09:15 NE 10 10.00 Fair CLR 59 46.4 63% 30.17 0.0
02 08:55 NE 9 10.00 Fair CLR 57.2 46.4 67% 30.16 0.0
02 08:35 N 6 10.00 Fair CLR 55.4 48.2 77% 30.16 0.0
02 08:15 N 6 10.00 Fair CLR 55.4 50 82% 30.15 0.0
02 07:55 Vrbl 6 10.00 Fair CLR 53.6 51.8 94% 30.15 0.0
02 07:35 Calm 10.00 Fair CLR 53.6 50 88% 30.14 0.0
02 07:15 Calm 10.00 Fair CLR 51.8 50 94% 30.14 0.0
02 06:55 N 6 10.00 Fair CLR 51.8 50 94% 30.13 0.0
02 06:35 N 5 10.00 A Few Clouds FEW075 51.8 50 94% 30.13 0.0
02 06:15 N 3 10.00 Mostly Cloudy SCT075 BKN090 51.8 50 94% 30.12 0.0
02 05:55 Calm 10.00 Overcast FEW034 SCT065 OVC075 51.8 51.8 100% 30.11 0.0
02 05:35 N 5 10.00 Mostly Cloudy FEW034 SCT055 BKN075 51.8 51.8 100% 30.1 0.0
02 05:15 W 5 10.00 Overcast FEW055 OVC090 53.6 50 88% 30.1 0.0
02 04:55 NW 3 10.00 Mostly Cloudy FEW024 SCT043 BKN055 53.6 50 88% 30.1 0.0
02 04:35 W 9 8.00 Light Rain FEW025 BKN045 OVC065 53.6 50 88% 30.11 0.0
02 04:15 NW 6 9.00 Light Rain FEW026 BKN060 OVC070 53.6 48.2 82% 30.11 0.0
02 03:55 NW 5 10.00 Overcast FEW029 BKN055 OVC070 53.6 48.2 82% 30.1 0.0
02 03:35 NW 10 9.00 Light Rain FEW024 SCT042 BKN055 53.6 46.4 77% 30.11 0.0
02 03:15 Vrbl 6 10.00 Overcast SCT065 OVC075 51.8 48.2 88% 30.1 0.0
02 02:55 N 6 10.00 Overcast BKN060 BKN075 OVC090 50 48.2 94% 48 30.1 0.0
02 02:15 Calm 10.00 Overcast BKN080 OVC095 46.4 46.4 100% 30.09 0.0
02 01:55 N 3 10.00 Mostly Cloudy BKN095 44.6 44.6 100% 30.1 0.0
02 01:35 Calm 10.00 Partly Cloudy SCT095 46.4 46.4 100% 30.09 0.0
02 01:15 NE 5 10.00 Partly Cloudy SCT095 44.6 44.6 100% 43 30.09 0.0
02 00:55 Calm 10.00 A Few Clouds FEW100 44.6 44.6 100% 30.08 0.0
02 00:35 Calm 10.00 A Few Clouds FEW100 44.6 44.6 100% 30.08 0.0
02 00:15 Calm 10.00 Fair CLR 44.6 44.6 100% 30.08 0.0
01 23:55 Calm 10.00 A Few Clouds FEW100 44.6 44.6 100% 30.09 0.0
01 23:35 Calm 10.00 Fair CLR 46.4 46.4 100% 30.09 0.0
01 23:15 Calm 10.00 Fair CLR 48.2 48.2 100% 30.09 0.0
01 22:55 Calm 10.00 Fair CLR 46.4 46.4 100% 30.09 0.0
01 22:35 Calm 10.00 A Few Clouds FEW090 48.2 48.2 100% 30.09 0.0
01 22:15 Calm 10.00 Partly Cloudy SCT090 48.2 48.2 100% 30.09 0.0
01 21:55 Calm 10.00 A Few Clouds FEW090 48.2 48.2 100% 30.09 0.0
01 21:35 Calm 10.00 Fair CLR 50 48.2 94% 30.08 0.0
01 21:15 Calm 5.00 Fair with Haze CLR 51.8 46.4 82% 30.07 0.0
01 20:55 Calm 10.00 Fair CLR 53.6 46.4 77% 30.06 0.0
01 20:35 SE 3 10.00 Fair CLR 55.4 44.6 67% 30.05 0.0
01 20:15 E 3 10.00 Fair CLR 59 41 51% 30.05 0.0
01 19:55 E 3 10.00 Fair CLR 60.8 41 48% 30.04 0.0
01 19:35 E 5 10.00 Fair CLR 62.6 41 45% 30.04 0.0
01 19:15 E 6 10.00 Fair CLR 64.4 39.2 40% 30.03 0.0
01 18:55 E 5 10.00 Fair CLR 66.2 37.4 35% 30.03 0.0
01 18:35 N 5 10.00 Fair CLR 64.4 37.4 37% 30.02 0.0
01 18:15 N 7 10.00 Fair CLR 66.2 35.6 32% 30.03 0.0
01 17:55 Vrbl 7 10.00 Fair CLR 66.2 35.6 32% 30.03 0.0
01 17:35 NE 9 10.00 Fair CLR 68 37.4 33% 30.02 0.0
01 17:15 N 10 10.00 Fair CLR 66.2 33.8 30% 30.02 0.0
01 16:35 Vrbl 7 G 18 10.00 Fair CLR 66.2 35.6 32% 30.02 0.0
01 16:15 NE 12 10.00 Fair CLR 68 35.6 30% 30.02 0.0
01 15:55 N 10 G 18 9.00 Fair CLR 68 35.6 30% 30.03 0.0
01 15:35 N 14 10.00 Fair CLR 68 35.6 30% 30.04 0.0
01 15:15 Vrbl 7 G 14 8.00 Light Rain CLR 68 37.4 33% 30.06 0.0
01 14:55 NE 7 10.00 Fair CLR 66.2 37.4 35% 30.07 0.0
01 14:35 N 8 G 15 10.00 Fair CLR 66.2 39.2 37% 30.08 0.0
01 14:15 NW 8 G 16 9.00 Fair CLR 68 41 38% 30.09 0.0
01 13:55 Vrbl 7 G 15 10.00 Fair CLR 66.2 41 40% 30.09 0.0
01 13:35 N 8 G 14 6.00 Light Drizzle Haze FEW060 66.2 42.8 43% 30.1 0.0
01 13:15 NE 8 10.00 Partly Cloudy SCT060 66.2 42.8 43% 30.11 0.0
01 12:55 Vrbl 7 G 14 10.00 Fair CLR 66.2 42.8 43% 30.11 0.0
01 12:35 Calm 10.00 Fair CLR 64.4 44.6 49% 30.11 0.0
01 12:15 N 9 G 15 10.00 Fair CLR 64.4 46.4 52% 30.12 0.0
01 11:55 Vrbl 6 G 13 10.00 Fair CLR 64.4 46.4 52% 30.12 0.0
01 11:35 NE 10 10.00 Fair CLR 64.4 48.2 56% 30.12 0.0
01 11:15 Vrbl 3 10.00 Fair CLR 62.6 48.2 60% 30.11 0.0
01 10:55 Vrbl 6 G 13 10.00 Fair CLR 62.6 48.2 60% 30.12 0.0
01 10:35 Vrbl 7 10.00 Fair CLR 62.6 48.2 60% 30.12 0.0
01 10:15 Vrbl 6 G 13 10.00 Fair CLR 60.8 46.4 59% 30.11 0.0
01 09:55 E 10 10.00 Fair CLR 60.8 46.4 59% 30.1 0.0
01 09:35 NE 9 10.00 Fair CLR 59 46.4 63% 30.1 0.0
01 09:15 E 8 10.00 Fair CLR 57.2 48.2 72% 30.09 0.0
01 08:55 NE 10 10.00 Fair CLR 57.2 50 77% 30.09 0.0
01 08:35 NE 8 10.00 Fair CLR 55.4 50 82% 30.09 0.0
01 08:15 NE 8 10.00 Fair CLR 55.4 51.8 88% 30.09 0.0
01 07:55 Calm 10.00 Fair CLR 51.8 51.8 100% 30.09 0.0
01 07:35 NE 6 10.00 Fair CLR 51.8 50 94% 30.09 0.0
01 07:15 E 6 10.00 A Few Clouds FEW095 50 50 100% 48 30.08 0.0
01 06:55 E 5 10.00 Partly Cloudy SCT095 50 50 100% 49 30.08 0.0
01 06:35 NE 7 10.00 Fair CLR 50 50 100% 48 30.07 0.0
01 06:15 NE 7 10.00 Fair CLR 50 50 100% 48 30.06 0.0
01 05:55 NE 6 10.00 Fair CLR 50 50 100% 48 30.06 0.0
01 05:35 E 6 10.00 Fair CLR 50 50 100% 48 30.06 0.0
01 05:15 Vrbl 5 10.00 Fair CLR 50 50 100% 49 30.07 0.0
01 04:55 NE 6 9.00 Fair CLR 50 50 100% 48 30.06 0.0
01 04:35 NE 7 10.00 Fair CLR 50 50 100% 48 30.06 0.0
01 04:15 NE 6 10.00 Fair CLR 50 50 100% 48 30.06 0.0
01 03:55 NE 7 10.00 Fair CLR 48.2 48.2 100% 46 30.06 0.0
01 03:35 NE 5 10.00 Fair CLR 48.2 48.2 100% 47 30.05 0.0
01 03:15 N 6 10.00 Fair CLR 50 50 100% 48 30.05 0.0
01 02:55 N 6 10.00 Fair CLR 46.4 46.4 100% 44 30.05 0.0
01 02:35 NE 5 10.00 Fair CLR 46.4 46.4 100% 45 30.05 0.0
01 02:10 NE 3 10.00 Fair CLR 46.4 46.4 100% 30.06 0.0
01 01:55 NE 3 10.00 Fair CLR 46.4 46.4 100% 30.06 0.0
01 01:35 NE 3 10.00 Fair CLR 46.4 46.4 100% 30.06 0.0
01 01:15 Calm 10.00 Fair CLR 48.2 48.2 100% 30.07 0.0
01 00:55 Calm 10.00 Fair CLR 50 50 100% 30.06 0.0
01 00:35 Calm 10.00 Fair CLR 48.2 48.2 100% 30.06 0.0
01 00:15 Calm 10.00 Fair CLR 48.2 48.2 100% 30.06 0.0
30 23:55 Calm 10.00 Fair CLR 48.2 48.2 100% 30.06 0.0
30 23:35 Calm 10.00 Fair CLR 50 50 100% 30.06 0.0
30 23:15 Calm 10.00 Fair CLR 50 50 100% 30.06 0.0
30 22:55 NE 3 10.00 Fair CLR 50 50 100% 30.06 0.0
30 22:35 NE 3 10.00 Fair CLR 50 50 100% 30.05 0.0
30 22:15 Calm 10.00 A Few Clouds FEW002 51.8 51.8 100% 30.06 0.0
30 21:55 Calm 10.00 Fair CLR 53.6 51.8 94% 30.05 0.0
30 21:35 N 3 10.00 Fair CLR 53.6 51.8 94% 30.04 0.0
30 20:55 N 5 10.00 Fair CLR 55.4 50 82% 30.02 0.0
30 20:35 Calm 10.00 Fair CLR 57.2 50 77% 30.02 0.0
30 20:15 Calm 10.00 Fair CLR 60.8 48.2 63% 30.02 0.0
30 19:55 NE 5 10.00 Fair CLR 60.8 48.2 63% 30.01 0.0
30 19:35 NE 5 10.00 Fair CLR 62.6 46.4 56% 30.01 0.0
30 19:15 NE 6 G 12 10.00 Fair CLR 62.6 46.4 56% 30 0.0
30 18:55 NE 7 10.00 Fair CLR 64.4 44.6 49% 30 0.0
30 18:35 NE 8 10.00 Fair CLR 64.4 42.8 46% 30 0.0
30 18:15 NE 8 G 15 10.00 Fair CLR 68 44.6 43% 30 0.0
30 17:55 NE 10 G 17 10.00 Fair CLR 68 44.6 43% 30 0.0
30 17:35 E 13 8.00 Fair CLR 68 42.8 40% 29.99 0.0
30 17:15 NE 9 10.00 Fair CLR 68 44.6 43% 30 0.0
30 16:55 NE 8 G 15 10.00 A Few Clouds FEW120 68 44.6 43% 30 0.0
30 16:35 NE 7 G 16 10.00 Fair CLR 68 44.6 43% 30 0.0
30 16:15 NE 8 G 16 10.00 Fair CLR 68 44.6 43% 30 0.0
30 15:55 NE 9 10.00 Fair CLR 68 42.8 40% 30.01 0.0
30 15:35 Vrbl 3 G 12 10.00 Fair CLR 66.2 44.6 46% 30.02 0.0
30 15:15 N 5 G 13 10.00 A Few Clouds FEW100 66.2 46.4 49% 30.02 0.0
30 14:55 NE 7 9.00 Fair CLR 68 46.4 46% 30.03 0.0
30 14:35 NE 8 9.00 Fair CLR 66.2 46.4 49% 30.03 0.0
30 14:15 E 7 10.00 Fair CLR 66.2 48.2 52% 30.04 0.0
30 13:55 Vrbl 7 10.00 Fair CLR 64.4 48.2 56% 30.04 0.0
30 13:35 N 9 10.00 Fair CLR 64.4 48.2 56% 30.04 0.0
30 13:15 Vrbl 6 10.00 Fair CLR 64.4 48.2 56% 30.06 0.0
30 12:55 NE 5 10.00 Fair CLR 62.6 48.2 60% 30.07 0.0
30 12:35 NE 5 10.00 Fair CLR 62.6 48.2 60% 30.08 0.0
30 12:15 Calm 10.00 Fair CLR 62.6 48.2 60% 30.08 0.0
30 11:55 Calm 10.00 Fair CLR 60.8 50 68% 30.09 0.0
30 11:35 Calm 10.00 Fair CLR 60.8 50 68% 30.1 0.0
30 11:15 N 7 10.00 Fair CLR 59 50 72% 30.1 0.0
30 10:55 Vrbl 6 10.00 Fair CLR 59 50 72% 30.1 0.0
30 10:35 NE 7 10.00 Fair CLR 59 50 72% 30.09 0.0
30 10:15 NE 6 10.00 Fair CLR 59 50 72% 30.09 0.0
30 09:55 E 9 10.00 Fair CLR 59 48.2 68% 30.08 0.0
30 09:35 E 9 10.00 Fair CLR 57.2 48.2 72% 30.09 0.0
30 09:15 E 7 10.00 Fair CLR 57.2 50 77% 30.09 0.0
30 08:55 E 7 10.00 Fair CLR 55.4 48.2 77% 30.08 0.0
30 08:35 E 6 10.00 Fair CLR 53.6 48.2 82% 30.09 0.0
30 08:15 NE 7 10.00 Fair CLR 53.6 48.2 82% 30.08 0.0
30 07:55 E 8 10.00 Fair CLR 51.8 48.2 88% 30.06 0.0
30 07:35 NE 7 10.00 Fair CLR 50 48.2 94% 48 30.06 0.0
30 07:15 NE 5 10.00 Fair CLR 48.2 48.2 100% 47 30.07 0.0
30 06:55 NE 6 10.00 Fair CLR 46.4 46.4 100% 44 30.06 0.0
30 06:35 NE 7 10.00 Fair CLR 46.4 46.4 100% 43 30.06 0.0
30 06:15 NE 7 10.00 Fair CLR 46.4 46.4 100% 43 30.06 0.0
30 05:55 NE 7 10.00 Fair CLR 48.2 48.2 100% 46 30.07 0.0
30 05:35 NE 7 10.00 Fair CLR 48.2 48.2 100% 46 30.07 0.0
30 05:15 NE 8 10.00 Fair CLR 48.2 48.2 100% 45 30.07 0.0
30 04:55 NE 8 10.00 Fair CLR 48.2 48.2 100% 45 30.06 0.0
30 04:35 NE 8 10.00 Fair CLR 48.2 48.2 100% 45 30.06 0.0
30 04:15 NE 6 10.00 Fair CLR 48.2 48.2 100% 46 30.06 0.0
30 03:55 NE 6 10.00 Fair CLR 48.2 48.2 100% 46 30.07 0.0
30 03:35 NE 6 10.00 Fair CLR 48.2 48.2 100% 46 30.06 0.0
30 03:15 NE 7 10.00 Fair CLR 50 48.2 94% 48 30.06 0.0
30 02:55 NE 8 10.00 Fair CLR 50 48.2 94% 47 30.06 0.0
30 02:35 NE 7 10.00 Fair CLR 48.2 48.2 100% 46 30.07 0.0
30 02:15 NE 5 10.00 Fair CLR 50 48.2 94% 49 30.07 0.0
30 01:55 NE 6 10.00 Fair CLR 50 48.2 94% 48 30.07 0.0
30 01:35 NE 6 10.00 Fair CLR 50 48.2 94% 48 30.06 0.0
Date Time (cdt) Wind (mph) Vis. (mi.) Weather Sky Cond. Air Dwpt Max. Min. Relative Humidity Wind Chill (°F) Heat Index (°F) altimeter (in) sea level (mb) 1 hr 3 hr 6 hr
6 hour
Temperature (ºF) Pressure Precipitation (in)